Time;durP1;ratioP1;P1;durP2;ratioP2;P2;SDS_P1;SDS_P2;PMS_P1;PMS_P2;Temp;Humidity;BMP_temperature;BMP_pressure;BME280_temperature;BME280_humidity;BME280_pressure;Samples;Min_cycle;Max_cycle;Signal;HPM_P1;HPM_P2
2024/03/18 00:01:59;;;;;;;63.90;9.77;;;;;;;;;;5091124;28;20443;-84
2024/03/18 00:04:27;;;;;;;63.23;9.23;;;;;;;;;;5090965;28;20923;-84
2024/03/18 00:06:54;;;;;;;64.63;8.67;;;;;;;;;;5087125;28;20441;-84
2024/03/18 00:09:21;;;;;;;60.60;7.87;;;;;;;;;;5094234;28;20462;-83
2024/03/18 00:11:48;;;;;;;63.10;9.47;;;;;;;;;;5087473;28;20972;-85
2024/03/18 00:14:16;;;;;;;61.47;8.57;;;;;;;;;;5086526;28;20811;-84
2024/03/18 00:16:43;;;;;;;61.27;8.60;;;;;;;;;;5095232;28;20474;-84
2024/03/18 00:19:12;;;;;;;61.17;8.33;;;;;;;;;;5087202;28;20456;-83
2024/03/18 00:21:39;;;;;;;64.90;8.60;;;;;;;;;;5096464;28;20447;-83
2024/03/18 00:24:07;;;;;;;65.23;8.70;;;;;;;;;;5098877;28;20471;-83
2024/03/18 00:26:34;;;;;;;61.97;8.67;;;;;;;;;;5089895;28;20466;-83
2024/03/18 00:29:01;;;;;;;63.07;9.00;;;;;;;;;;5091153;28;20520;-84
2024/03/18 00:31:29;;;;;;;63.07;8.90;;;;;;;;;;5099011;28;20443;-84
2024/03/18 00:33:56;;;;;;;67.43;9.20;;;;;;;;;;5090354;28;20450;-85
2024/03/18 00:36:24;;;;;;;60.97;8.37;;;;;;;;;;5091857;28;20485;-85
2024/03/18 00:38:52;;;;;;;61.47;7.87;;;;;;;;;;5090145;28;20543;-85
2024/03/18 00:44:05;;;;;;;63.00;8.97;;;;;;;;;;5088802;28;20431;-86
2024/03/18 00:46:31;;;;;;;63.37;8.77;;;;;;;;;;5089462;28;20905;-85
2024/03/18 00:48:58;;;;;;;65.30;9.80;;;;;;;;;;5097195;28;20517;-85
2024/03/18 00:51:27;;;;;;;60.80;7.60;;;;;;;;;;5088811;28;20948;-84
2024/03/18 00:53:54;;;;;;;62.37;8.30;;;;;;;;;;5100490;28;21135;-85
2024/03/18 00:56:21;;;;;;;63.07;8.50;;;;;;;;;;5094018;28;20502;-85
2024/03/18 00:58:49;;;;;;;61.23;7.37;;;;;;;;;;5096851;28;20917;-85
2024/03/18 01:01:18;;;;;;;61.10;8.67;;;;;;;;;;5092845;28;20473;-85
2024/03/18 01:03:45;;;;;;;61.47;7.90;;;;;;;;;;5097702;28;20477;-85
2024/03/18 01:06:12;;;;;;;61.80;7.33;;;;;;;;;;5086010;28;20521;-83
2024/03/18 01:08:41;;;;;;;60.80;8.20;;;;;;;;;;5088829;28;20444;-85
2024/03/18 01:11:08;;;;;;;62.97;8.00;;;;;;;;;;5087288;28;20448;-85
2024/03/18 01:13:36;;;;;;;61.67;7.50;;;;;;;;;;5087770;28;20443;-85
2024/03/18 01:16:03;;;;;;;60.50;7.83;;;;;;;;;;5091401;28;20485;-84
2024/03/18 01:18:31;;;;;;;61.10;8.10;;;;;;;;;;5083400;28;21206;-86
2024/03/18 01:20:58;;;;;;;62.07;8.00;;;;;;;;;;5096515;28;20448;-85
2024/03/18 01:23:25;;;;;;;60.67;6.97;;;;;;;;;;5094622;28;20443;-85
2024/03/18 01:25:54;;;;;;;61.90;7.70;;;;;;;;;;5082778;28;20460;-85
2024/03/18 01:28:22;;;;;;;61.80;7.40;;;;;;;;;;5088181;28;20440;-85
2024/03/18 01:30:51;;;;;;;60.73;7.33;;;;;;;;;;5090324;28;20521;-85
2024/03/18 01:33:18;;;;;;;59.57;7.23;;;;;;;;;;5100705;28;20450;-85
2024/03/18 01:35:46;;;;;;;61.07;7.23;;;;;;;;;;5099982;28;20553;-85
2024/03/18 01:38:13;;;;;;;62.57;8.13;;;;;;;;;;5091581;28;20471;-85
2024/03/18 01:40:41;;;;;;;61.63;7.30;;;;;;;;;;5082465;28;20454;-85
2024/03/18 01:43:10;;;;;;;61.40;8.23;;;;;;;;;;5083970;28;20443;-84
2024/03/18 01:45:40;;;;;;;61.90;7.27;;;;;;;;;;5091200;28;20459;-85
2024/03/18 01:48:08;;;;;;;60.50;7.03;;;;;;;;;;5083124;28;20519;-84
2024/03/18 01:50:35;;;;;;;59.70;6.83;;;;;;;;;;5080736;28;21125;-83
2024/03/18 01:53:03;;;;;;;60.77;8.07;;;;;;;;;;5081490;28;20501;-83
2024/03/18 01:55:32;;;;;;;61.47;7.20;;;;;;;;;;5081471;28;20463;-83
2024/03/18 01:58:00;;;;;;;61.20;7.40;;;;;;;;;;5089495;28;20519;-84
2024/03/18 02:00:33;;;;;;;60.70;7.87;;;;;;;;;;5088103;28;20443;-83
2024/03/18 02:03:01;;;;;;;64.97;8.23;;;;;;;;;;5082442;28;20441;-83
2024/03/18 02:05:29;;;;;;;63.83;9.07;;;;;;;;;;5088644;28;20970;-83
2024/03/18 02:07:56;;;;;;;62.43;8.50;;;;;;;;;;5074046;28;20452;-84
2024/03/18 02:10:24;;;;;;;62.80;8.00;;;;;;;;;;5081775;28;20452;-86
2024/03/18 02:12:52;;;;;;;62.07;7.80;;;;;;;;;;5084022;28;20535;-83
2024/03/18 02:15:21;;;;;;;61.60;7.80;;;;;;;;;;5085745;28;20513;-83
2024/03/18 02:17:50;;;;;;;61.80;8.27;;;;;;;;;;5083777;28;20507;-83
2024/03/18 02:20:17;;;;;;;59.90;7.77;;;;;;;;;;5087523;28;20523;-83
2024/03/18 02:22:47;;;;;;;61.13;8.23;;;;;;;;;;5085246;28;20439;-84
2024/03/18 02:25:15;;;;;;;60.50;8.00;;;;;;;;;;5083440;28;20464;-84
2024/03/18 02:27:44;;;;;;;62.67;8.30;;;;;;;;;;5084484;28;20475;-85
2024/03/18 02:30:12;;;;;;;61.73;7.87;;;;;;;;;;5082585;28;20484;-83
2024/03/18 02:32:41;;;;;;;60.80;7.67;;;;;;;;;;5090710;28;20508;-83
2024/03/18 02:35:11;;;;;;;66.17;8.93;;;;;;;;;;5086223;28;20514;-84
2024/03/18 02:37:38;;;;;;;62.23;8.40;;;;;;;;;;5085656;28;20450;-84
2024/03/18 02:40:08;;;;;;;60.40;7.70;;;;;;;;;;5085936;28;20447;-83
2024/03/18 02:42:36;;;;;;;62.47;8.43;;;;;;;;;;5086446;28;20436;-83
2024/03/18 02:45:03;;;;;;;59.50;7.40;;;;;;;;;;5085912;28;20479;-83
2024/03/18 02:47:33;;;;;;;61.87;8.60;;;;;;;;;;5078126;28;20448;-83
2024/03/18 02:50:01;;;;;;;60.63;7.93;;;;;;;;;;5093715;28;20879;-83
2024/03/18 02:52:28;;;;;;;61.40;7.63;;;;;;;;;;5094590;28;20930;-84
2024/03/18 02:54:55;;;;;;;61.80;7.90;;;;;;;;;;5086313;28;21096;-84
2024/03/18 02:57:24;;;;;;;61.80;8.73;;;;;;;;;;5088463;28;20460;-84
2024/03/18 02:59:51;;;;;;;63.40;8.23;;;;;;;;;;5090259;28;20480;-84
2024/03/18 03:02:18;;;;;;;61.00;7.77;;;;;;;;;;5088221;28;20456;-83
2024/03/18 03:04:45;;;;;;;60.63;7.90;;;;;;;;;;5090127;28;20474;-83
2024/03/18 03:07:13;;;;;;;60.30;7.27;;;;;;;;;;5100919;28;20455;-84
2024/03/18 03:09:40;;;;;;;61.30;7.40;;;;;;;;;;5092852;28;20444;-84
2024/03/18 03:12:08;;;;;;;64.87;7.80;;;;;;;;;;5092491;28;20888;-84
2024/03/18 03:14:37;;;;;;;59.50;7.20;;;;;;;;;;5095452;28;20526;-83
2024/03/18 03:17:06;;;;;;;64.87;8.53;;;;;;;;;;5089550;28;20448;-84
2024/03/18 03:19:33;;;;;;;62.60;7.30;;;;;;;;;;5089973;28;20506;-85
2024/03/18 03:22:00;;;;;;;61.67;8.63;;;;;;;;;;5092169;28;20440;-83
2024/03/18 03:24:27;;;;;;;66.10;8.60;;;;;;;;;;5090582;28;20863;-85
2024/03/18 03:26:56;;;;;;;61.07;7.70;;;;;;;;;;5080591;28;20440;-84
2024/03/18 03:29:23;;;;;;;61.80;8.37;;;;;;;;;;5089794;28;20444;-84
2024/03/18 03:31:51;;;;;;;61.27;8.27;;;;;;;;;;5098456;28;20455;-84
2024/03/18 03:34:19;;;;;;;61.47;8.33;;;;;;;;;;5092608;28;20492;-85
2024/03/18 03:36:46;;;;;;;60.00;7.93;;;;;;;;;;5100067;28;20504;-84
2024/03/18 03:39:13;;;;;;;62.50;8.07;;;;;;;;;;5089112;28;20475;-84
2024/03/18 03:41:41;;;;;;;61.97;7.43;;;;;;;;;;5096189;28;20443;-83
2024/03/18 03:44:09;;;;;;;64.60;8.03;;;;;;;;;;5085076;28;20488;-84
2024/03/18 03:46:36;;;;;;;60.80;8.30;;;;;;;;;;5093929;28;20527;-86
2024/03/18 03:49:04;;;;;;;62.20;8.50;;;;;;;;;;5080907;28;20470;-84
2024/03/18 03:51:32;;;;;;;61.60;7.50;;;;;;;;;;5088753;28;20451;-85
2024/03/18 03:53:59;;;;;;;61.40;7.80;;;;;;;;;;5089343;28;20805;-85
2024/03/18 03:56:29;;;;;;;61.10;7.87;;;;;;;;;;5089118;28;20518;-84
2024/03/18 03:58:55;;;;;;;63.23;8.37;;;;;;;;;;5079581;28;21015;-85
2024/03/18 04:01:22;;;;;;;64.00;9.23;;;;;;;;;;5088488;28;20456;-85
2024/03/18 04:03:50;;;;;;;64.27;9.17;;;;;;;;;;5081223;28;20436;-85
2024/03/18 04:06:18;;;;;;;61.87;7.93;;;;;;;;;;5088111;28;20501;-84
2024/03/18 04:08:45;;;;;;;61.33;8.40;;;;;;;;;;5088077;28;20495;-83
2024/03/18 04:11:13;;;;;;;61.43;8.07;;;;;;;;;;5088793;28;20431;-84
2024/03/18 04:13:41;;;;;;;63.67;8.23;;;;;;;;;;5096811;28;20442;-85
2024/03/18 04:16:09;;;;;;;64.90;9.20;;;;;;;;;;5098039;28;20470;-84
2024/03/18 04:18:37;;;;;;;69.90;10.10;;;;;;;;;;5088742;28;20476;-84
2024/03/18 04:21:04;;;;;;;60.70;7.87;;;;;;;;;;5089708;28;20435;-85
2024/03/18 04:23:33;;;;;;;60.70;8.30;;;;;;;;;;5095513;28;20455;-83
2024/03/18 04:26:05;;;;;;;66.10;7.50;;;;;;;;;;5092115;28;20488;-85
2024/03/18 04:28:32;;;;;;;62.33;7.57;;;;;;;;;;5094442;28;20444;-86
2024/03/18 04:31:04;;;;;;;61.17;8.30;;;;;;;;;;5099605;28;20447;-84
2024/03/18 04:33:32;;;;;;;61.20;7.40;;;;;;;;;;5094601;28;20452;-84
2024/03/18 04:35:59;;;;;;;60.90;7.50;;;;;;;;;;5083214;28;20452;-84
2024/03/18 04:38:27;;;;;;;59.83;8.03;;;;;;;;;;5088882;28;20476;-85
2024/03/18 04:40:55;;;;;;;60.07;8.17;;;;;;;;;;5088989;28;20502;-85
2024/03/18 04:43:23;;;;;;;63.10;7.40;;;;;;;;;;5084961;28;20458;-87
2024/03/18 04:45:50;;;;;;;61.10;7.43;;;;;;;;;;5092144;28;20456;-86
2024/03/18 04:48:17;;;;;;;60.87;7.47;;;;;;;;;;5092365;28;20451;-85
2024/03/18 04:50:46;;;;;;;61.50;8.30;;;;;;;;;;5092541;28;20440;-85
2024/03/18 04:53:13;;;;;;;64.10;8.37;;;;;;;;;;5092016;28;20459;-85
2024/03/18 04:55:40;;;;;;;61.50;7.50;;;;;;;;;;5093186;28;20479;-84
2024/03/18 04:58:09;;;;;;;61.10;8.00;;;;;;;;;;5092664;28;20504;-85
2024/03/18 05:00:36;;;;;;;64.80;8.50;;;;;;;;;;5086118;28;20436;-84
2024/03/18 05:03:03;;;;;;;61.40;7.90;;;;;;;;;;5093553;28;20444;-86
2024/03/18 05:05:31;;;;;;;61.40;7.87;;;;;;;;;;5102543;28;20467;-85
2024/03/18 05:07:58;;;;;;;61.10;8.50;;;;;;;;;;5088576;28;20440;-86
2024/03/18 05:10:28;;;;;;;63.30;8.87;;;;;;;;;;5095483;28;21007;-86
2024/03/18 05:12:59;;;;;;;65.23;7.97;;;;;;;;;;5093353;28;20440;-85
2024/03/18 05:15:28;;;;;;;60.47;8.23;;;;;;;;;;5097112;28;20460;-86
2024/03/18 05:17:55;;;;;;;63.80;8.13;;;;;;;;;;5082409;28;20444;-85
2024/03/18 05:20:23;;;;;;;61.80;8.33;;;;;;;;;;5098793;28;20670;-86
2024/03/18 05:22:50;;;;;;;60.57;7.53;;;;;;;;;;5100718;28;20485;-84
2024/03/18 05:25:17;;;;;;;63.50;9.40;;;;;;;;;;5088681;28;20517;-84
2024/03/18 05:27:45;;;;;;;60.43;7.70;;;;;;;;;;5088263;28;20439;-85
2024/03/18 05:30:13;;;;;;;62.20;8.17;;;;;;;;;;5092507;28;20451;-84
2024/03/18 05:32:42;;;;;;;61.70;8.20;;;;;;;;;;5093488;28;20436;-86
2024/03/18 05:35:09;;;;;;;63.87;8.37;;;;;;;;;;5097860;28;20474;-86
2024/03/18 05:37:37;;;;;;;59.70;7.90;;;;;;;;;;5096126;28;20443;-86
2024/03/18 05:40:05;;;;;;;60.40;7.60;;;;;;;;;;5098764;28;20474;-85
2024/03/18 05:42:32;;;;;;;61.37;7.40;;;;;;;;;;5089893;28;20448;-85
2024/03/18 05:45:00;;;;;;;63.43;8.30;;;;;;;;;;5089517;28;20455;-85
2024/03/18 05:47:27;;;;;;;62.30;8.40;;;;;;;;;;5086737;28;20443;-85
2024/03/18 05:49:56;;;;;;;60.27;7.90;;;;;;;;;;5098691;28;20960;-85
2024/03/18 05:52:23;;;;;;;60.60;8.03;;;;;;;;;;5108974;28;20589;-86
2024/03/18 05:54:51;;;;;;;60.60;7.50;;;;;;;;;;5107017;28;20447;-86
2024/03/18 05:57:18;;;;;;;60.17;7.80;;;;;;;;;;5093620;28;20460;-84
2024/03/18 05:59:45;;;;;;;60.10;7.17;;;;;;;;;;5092912;28;20478;-84
2024/03/18 06:02:12;;;;;;;61.80;8.07;;;;;;;;;;5089395;28;20455;-85
2024/03/18 06:04:39;;;;;;;63.20;8.50;;;;;;;;;;5101147;28;20508;-84
2024/03/18 06:07:08;;;;;;;60.83;7.90;;;;;;;;;;5106282;28;20443;-86
2024/03/18 06:09:35;;;;;;;63.97;8.60;;;;;;;;;;5106749;28;20931;-85
2024/03/18 06:12:03;;;;;;;60.77;8.00;;;;;;;;;;5106338;28;20815;-85
2024/03/18 06:14:31;;;;;;;62.40;8.47;;;;;;;;;;5101290;28;20943;-85
2024/03/18 06:16:59;;;;;;;60.67;7.63;;;;;;;;;;5100814;28;20484;-85
2024/03/18 06:19:33;;;;;;;61.40;7.67;;;;;;;;;;5102901;28;20466;-85
2024/03/18 06:22:02;;;;;;;60.27;7.43;;;;;;;;;;5101875;28;20440;-83
2024/03/18 06:25:54;;;;;;;60.50;7.50;;;;;;;;;;5105115;28;20498;-85
2024/03/18 06:27:17;;;;;;;61.00;7.50;;;;;;;;;;5098581;28;20456;-84
2024/03/18 06:29:44;;;;;;;60.67;7.60;;;;;;;;;;5107709;28;20477;-84
2024/03/18 06:32:12;;;;;;;63.03;7.40;;;;;;;;;;5113046;28;20434;-83
2024/03/18 06:34:39;;;;;;;61.23;8.13;;;;;;;;;;5101837;28;20447;-83
2024/03/18 06:37:06;;;;;;;61.80;8.27;;;;;;;;;;5089726;28;20492;-84
2024/03/18 06:39:35;;;;;;;62.33;7.63;;;;;;;;;;5086409;28;20482;-82
2024/03/18 06:42:02;;;;;;;63.07;8.13;;;;;;;;;;5084546;28;20486;-83
2024/03/18 06:44:30;;;;;;;60.93;7.80;;;;;;;;;;5090665;28;20469;-82
2024/03/18 06:46:57;;;;;;;65.20;7.10;;;;;;;;;;5081975;28;20518;-83
2024/03/18 06:49:25;;;;;;;63.30;7.77;;;;;;;;;;5100008;28;20473;-83
2024/03/18 06:51:52;;;;;;;61.40;7.53;;;;;;;;;;5082243;28;20456;-82
2024/03/18 06:54:19;;;;;;;60.83;8.40;;;;;;;;;;5089832;28;20793;-81
2024/03/18 06:56:48;;;;;;;62.10;7.90;;;;;;;;;;5090710;28;20462;-83
2024/03/18 06:59:16;;;;;;;60.50;7.93;;;;;;;;;;5099874;28;20542;-83
2024/03/18 07:01:43;;;;;;;64.27;7.70;;;;;;;;;;5102461;28;20487;-84
2024/03/18 07:04:10;;;;;;;61.10;8.63;;;;;;;;;;5098412;28;20452;-84
2024/03/18 07:06:38;;;;;;;60.57;8.10;;;;;;;;;;5100094;28;20487;-83
2024/03/18 07:09:07;;;;;;;60.37;7.37;;;;;;;;;;5106655;28;20431;-84
2024/03/18 07:11:34;;;;;;;62.30;7.70;;;;;;;;;;5099978;28;20790;-84
2024/03/18 07:14:02;;;;;;;63.30;7.90;;;;;;;;;;5098160;28;20447;-84
2024/03/18 07:16:30;;;;;;;61.63;8.27;;;;;;;;;;5102348;28;20471;-83
2024/03/18 07:18:57;;;;;;;63.50;7.67;;;;;;;;;;5105229;28;20473;-84
2024/03/18 07:21:24;;;;;;;61.37;7.67;;;;;;;;;;5104212;28;20436;-83
2024/03/18 07:23:51;;;;;;;63.43;8.17;;;;;;;;;;5095870;28;20565;-82
2024/03/18 07:26:19;;;;;;;59.90;7.47;;;;;;;;;;5081105;28;20896;-82
2024/03/18 07:28:46;;;;;;;61.77;6.80;;;;;;;;;;5097626;28;20435;-81
2024/03/18 07:31:15;;;;;;;63.03;7.60;;;;;;;;;;5092566;28;20651;-82
2024/03/18 07:33:42;;;;;;;60.50;7.63;;;;;;;;;;5102031;28;20492;-83
2024/03/18 07:36:09;;;;;;;62.87;7.30;;;;;;;;;;5098124;28;20455;-83
2024/03/18 07:38:37;;;;;;;62.03;8.20;;;;;;;;;;5106271;28;20465;-83
2024/03/18 07:41:04;;;;;;;62.30;6.90;;;;;;;;;;5097415;28;20559;-82
2024/03/18 07:43:31;;;;;;;61.20;7.83;;;;;;;;;;5097378;28;20447;-82
2024/03/18 07:45:59;;;;;;;59.87;7.23;;;;;;;;;;5089919;28;20999;-82
2024/03/18 07:48:27;;;;;;;65.37;8.40;;;;;;;;;;5098399;28;20458;-82
2024/03/18 07:50:58;;;;;;;61.57;6.93;;;;;;;;;;5098656;28;20821;-82
2024/03/18 07:53:25;;;;;;;61.27;6.70;;;;;;;;;;5091155;28;20435;-83
2024/03/18 07:56:01;;;;;;;61.60;7.10;;;;;;;;;;5089948;28;20540;-82
2024/03/18 07:58:28;;;;;;;65.03;6.93;;;;;;;;;;5090579;28;20511;-84
2024/03/18 08:00:56;;;;;;;60.47;7.00;;;;;;;;;;5090231;28;20486;-83
2024/03/18 08:03:23;;;;;;;59.97;6.80;;;;;;;;;;5090761;28;20450;-82
2024/03/18 08:05:53;;;;;;;64.53;7.70;;;;;;;;;;5089882;28;20842;-82
2024/03/18 08:08:20;;;;;;;60.57;6.83;;;;;;;;;;5085406;28;20458;-84
2024/03/18 08:10:47;;;;;;;60.10;7.17;;;;;;;;;;5090649;28;20446;-82
2024/03/18 08:13:15;;;;;;;64.40;7.63;;;;;;;;;;5089272;28;20455;-83
2024/03/18 08:15:45;;;;;;;58.80;6.37;;;;;;;;;;5093189;28;20505;-83
2024/03/18 08:18:13;;;;;;;59.40;6.63;;;;;;;;;;5083662;28;20452;-83
2024/03/18 08:20:40;;;;;;;61.70;7.27;;;;;;;;;;5097248;28;20516;-85
2024/03/18 08:23:08;;;;;;;62.70;7.77;;;;;;;;;;5086697;28;20855;-81
2024/03/18 08:25:36;;;;;;;60.77;6.87;;;;;;;;;;5101915;28;20492;-82
2024/03/18 08:28:03;;;;;;;60.60;7.00;;;;;;;;;;5091753;28;20431;-81
2024/03/18 08:30:31;;;;;;;60.87;6.83;;;;;;;;;;5095370;28;20862;-83
2024/03/18 08:32:58;;;;;;;63.47;8.10;;;;;;;;;;5097917;28;20458;-82
2024/03/18 08:35:25;;;;;;;60.97;7.40;;;;;;;;;;5092607;28;20459;-81
2024/03/18 08:37:52;;;;;;;63.80;7.60;;;;;;;;;;5092663;28;20450;-82
2024/03/18 08:40:21;;;;;;;62.63;8.10;;;;;;;;;;5091309;28;20540;-83
2024/03/18 08:42:48;;;;;;;62.37;8.40;;;;;;;;;;5094863;28;20490;-83
2024/03/18 08:45:16;;;;;;;63.10;7.90;;;;;;;;;;5092047;28;20480;-82
2024/03/18 08:47:43;;;;;;;62.20;8.07;;;;;;;;;;5094712;28;20440;-83
2024/03/18 08:50:10;;;;;;;63.07;9.20;;;;;;;;;;5098814;28;20501;-81
2024/03/18 08:52:38;;;;;;;61.97;8.50;;;;;;;;;;5094893;28;20498;-82
2024/03/18 08:55:05;;;;;;;61.60;8.50;;;;;;;;;;5095779;28;21416;-83
2024/03/18 08:57:34;;;;;;;69.80;8.73;;;;;;;;;;5099390;28;20447;-84
2024/03/18 09:00:02;;;;;;;60.07;7.73;;;;;;;;;;5087827;28;20471;-84
2024/03/18 09:02:30;;;;;;;62.20;8.40;;;;;;;;;;5097539;28;20443;-82
2024/03/18 09:04:58;;;;;;;62.50;8.73;;;;;;;;;;5093929;28;20497;-83
2024/03/18 09:07:25;;;;;;;60.47;8.40;;;;;;;;;;5096051;28;20904;-83
2024/03/18 09:09:52;;;;;;;63.77;8.60;;;;;;;;;;5093675;28;20447;-83
2024/03/18 09:12:19;;;;;;;63.20;9.40;;;;;;;;;;5101402;28;20447;-85
2024/03/18 09:14:48;;;;;;;60.40;8.43;;;;;;;;;;5092592;28;20873;-83
2024/03/18 09:17:15;;;;;;;60.17;8.10;;;;;;;;;;5088102;28;20567;-84
2024/03/18 09:19:43;;;;;;;62.40;9.17;;;;;;;;;;5093494;28;20526;-85
2024/03/18 09:22:10;;;;;;;63.17;8.13;;;;;;;;;;5087208;28;20431;-83
2024/03/18 09:24:37;;;;;;;59.80;6.33;;;;;;;;;;5088230;28;21014;-83
2024/03/18 09:27:06;;;;;;;61.53;7.20;;;;;;;;;;5082615;28;20480;-83
2024/03/18 09:29:34;;;;;;;63.93;8.20;;;;;;;;;;5102080;28;20987;-84
2024/03/18 09:32:02;;;;;;;63.07;8.40;;;;;;;;;;5084417;28;20440;-85
2024/03/18 09:34:30;;;;;;;62.00;9.30;;;;;;;;;;5092655;28;20447;-84
2024/03/18 09:36:57;;;;;;;60.90;8.10;;;;;;;;;;5083349;28;20454;-86
2024/03/18 09:39:25;;;;;;;63.13;8.50;;;;;;;;;;5091125;28;20447;-83
2024/03/18 09:41:53;;;;;;;62.60;8.90;;;;;;;;;;5092517;28;20487;-86
2024/03/18 09:44:21;;;;;;;60.07;7.87;;;;;;;;;;5095927;28;20485;-87
2024/03/18 09:46:49;;;;;;;61.93;8.23;;;;;;;;;;5092640;28;20524;-85
2024/03/18 09:49:20;;;;;;;60.57;7.63;;;;;;;;;;5089616;28;20467;-84
2024/03/18 09:51:48;;;;;;;62.40;8.93;;;;;;;;;;5090499;28;20444;-84
2024/03/18 09:54:16;;;;;;;62.97;8.13;;;;;;;;;;5089100;28;20534;-85
2024/03/18 09:56:43;;;;;;;61.90;8.93;;;;;;;;;;5093392;28;20460;-83
2024/03/18 09:59:13;;;;;;;60.40;8.07;;;;;;;;;;5081643;28;20486;-84
2024/03/18 10:01:40;;;;;;;62.00;8.97;;;;;;;;;;5090620;28;20467;-85
2024/03/18 10:04:08;;;;;;;61.93;9.50;;;;;;;;;;5081823;28;20862;-83
2024/03/18 10:06:36;;;;;;;62.40;9.03;;;;;;;;;;5089346;28;20467;-84
2024/03/18 10:09:03;;;;;;;60.67;8.50;;;;;;;;;;5081032;28;20494;-83
2024/03/18 10:11:31;;;;;;;60.90;8.10;;;;;;;;;;5085023;28;20493;-84
2024/03/18 10:13:58;;;;;;;61.80;8.00;;;;;;;;;;5094355;28;20496;-84
2024/03/18 10:16:25;;;;;;;65.87;7.83;;;;;;;;;;5089299;28;20463;-82
2024/03/18 10:18:53;;;;;;;62.53;8.30;;;;;;;;;;5090832;28;20441;-84
2024/03/18 10:21:20;;;;;;;62.70;7.80;;;;;;;;;;5088049;28;20483;-83
2024/03/18 10:23:53;;;;;;;59.87;6.87;;;;;;;;;;5088827;28;20443;-83
2024/03/18 10:26:21;;;;;;;60.77;8.30;;;;;;;;;;5067043;28;20470;-85
2024/03/18 10:28:49;;;;;;;61.93;7.37;;;;;;;;;;5083438;28;20793;-86
2024/03/18 10:31:17;;;;;;;62.93;7.43;;;;;;;;;;5094637;28;20443;-85
2024/03/18 10:33:45;;;;;;;59.50;7.23;;;;;;;;;;5094622;28;20450;-85
2024/03/18 10:36:17;;;;;;;59.53;7.03;;;;;;;;;;5091770;28;20483;-85
2024/03/18 10:38:45;;;;;;;61.00;6.83;;;;;;;;;;5109600;28;20482;-84
2024/03/18 10:41:18;;;;;;;62.70;7.20;;;;;;;;;;5104503;28;20478;-84
2024/03/18 10:43:48;;;;;;;59.43;6.63;;;;;;;;;;5090825;28;20431;-83
2024/03/18 10:46:16;;;;;;;60.33;7.10;;;;;;;;;;5085918;28;20515;-81
2024/03/18 10:48:44;;;;;;;60.80;6.20;;;;;;;;;;5099005;28;20467;-85
2024/03/18 10:51:13;;;;;;;62.17;7.07;;;;;;;;;;5089257;28;20809;-83
2024/03/18 10:53:41;;;;;;;62.73;8.10;;;;;;;;;;5086224;28;20531;-83
2024/03/18 10:56:08;;;;;;;59.67;7.60;;;;;;;;;;5085421;28;20489;-84
2024/03/18 10:58:37;;;;;;;60.90;7.60;;;;;;;;;;5090088;28;20462;-83
2024/03/18 11:01:05;;;;;;;62.27;7.67;;;;;;;;;;5097761;28;20490;-83
2024/03/18 11:03:32;;;;;;;61.53;7.17;;;;;;;;;;5086335;28;20551;-84
2024/03/18 11:06:00;;;;;;;65.80;7.73;;;;;;;;;;5086034;28;20839;-83
2024/03/18 11:08:27;;;;;;;66.00;7.90;;;;;;;;;;5087837;28;20447;-83
2024/03/18 11:10:57;;;;;;;71.17;9.03;;;;;;;;;;5088098;28;20440;-82
2024/03/18 11:13:33;;;;;;;61.67;8.33;;;;;;;;;;5088164;28;20436;-81
2024/03/18 11:16:06;;;;;;;65.23;7.30;;;;;;;;;;5088356;28;20482;-82
2024/03/18 11:18:35;;;;;;;61.47;9.13;;;;;;;;;;5091409;28;20525;-83
2024/03/18 11:21:03;;;;;;;64.87;7.27;;;;;;;;;;5101904;28;20486;-83
2024/03/18 11:23:31;;;;;;;61.00;6.17;;;;;;;;;;5093620;28;20462;-83
2024/03/18 11:25:59;;;;;;;64.23;12.10;;;;;;;;;;5092812;28;20451;-83
2024/03/18 11:28:36;;;;;;;60.60;7.20;;;;;;;;;;5098262;28;20558;-83
2024/03/18 11:31:06;;;;;;;62.43;7.60;;;;;;;;;;5093670;28;20943;-83
2024/03/18 11:33:36;;;;;;;65.40;8.67;;;;;;;;;;5087354;28;20438;-83
2024/03/18 11:36:04;;;;;;;60.20;6.70;;;;;;;;;;5088021;28;20558;-82
2024/03/18 11:38:32;;;;;;;61.00;7.20;;;;;;;;;;5088398;28;20447;-84
2024/03/18 11:41:00;;;;;;;61.37;6.30;;;;;;;;;;5088047;28;20510;-83
2024/03/18 11:43:27;;;;;;;61.17;6.60;;;;;;;;;;5085463;28;20462;-82
2024/03/18 11:45:54;;;;;;;61.27;7.50;;;;;;;;;;5091961;28;20540;-82
2024/03/18 11:48:23;;;;;;;61.70;7.17;;;;;;;;;;5088332;28;20798;-82
2024/03/18 11:50:50;;;;;;;59.57;6.57;;;;;;;;;;5085878;28;20504;-84
2024/03/18 11:53:19;;;;;;;60.97;6.77;;;;;;;;;;5086266;28;20497;-83
2024/03/18 11:55:49;;;;;;;61.50;7.00;;;;;;;;;;5086064;28;20472;-84
2024/03/18 11:58:16;;;;;;;60.87;7.77;;;;;;;;;;5087173;28;20531;-88
2024/03/18 12:00:43;;;;;;;63.93;7.77;;;;;;;;;;5089968;28;20482;-82
2024/03/18 12:03:11;;;;;;;60.17;7.17;;;;;;;;;;5081778;28;20498;-83
2024/03/18 12:05:41;;;;;;;60.70;7.40;;;;;;;;;;5085238;28;20797;-83
2024/03/18 12:08:08;;;;;;;62.27;8.97;;;;;;;;;;5085790;28;20455;-82
2024/03/18 12:10:37;;;;;;;60.80;7.90;;;;;;;;;;5088588;28;20803;-81
2024/03/18 12:13:04;;;;;;;62.60;8.60;;;;;;;;;;5080189;28;20570;-81
2024/03/18 12:15:32;;;;;;;64.50;9.00;;;;;;;;;;5088393;28;20451;-80
2024/03/18 12:17:59;;;;;;;70.03;10.43;;;;;;;;;;5097102;28;20591;-82
2024/03/18 12:20:27;;;;;;;66.13;12.50;;;;;;;;;;5078356;28;20490;-81
2024/03/18 12:23:03;;;;;;;63.53;11.40;;;;;;;;;;5086140;28;20444;-82
2024/03/18 12:28:44;;;;;;;62.50;9.90;;;;;;;;;;5098171;28;20871;-82
2024/03/18 12:31:14;;;;;;;61.70;7.97;;;;;;;;;;5089725;28;20444;-83
2024/03/18 12:33:42;;;;;;;61.70;7.83;;;;;;;;;;5086117;28;20471;-83
2024/03/18 12:36:13;;;;;;;62.37;8.00;;;;;;;;;;5097207;28;20467;-83
2024/03/18 12:38:42;;;;;;;63.00;8.33;;;;;;;;;;5090359;28;20443;-85
2024/03/18 12:41:12;;;;;;;68.57;8.80;;;;;;;;;;5090739;28;20532;-84
2024/03/18 12:43:39;;;;;;;63.83;7.70;;;;;;;;;;5093079;28;20527;-86
2024/03/18 12:46:06;;;;;;;61.77;7.80;;;;;;;;;;5093109;28;20462;-85
2024/03/18 12:48:34;;;;;;;64.70;8.47;;;;;;;;;;5093620;28;20432;-87
2024/03/18 12:51:01;;;;;;;62.20;7.83;;;;;;;;;;5094967;28;20450;-86
2024/03/18 12:53:28;;;;;;;60.63;7.37;;;;;;;;;;5098259;28;20454;-85
2024/03/18 12:55:57;;;;;;;60.43;6.90;;;;;;;;;;5090502;28;21056;-86
2024/03/18 12:58:25;;;;;;;63.17;7.50;;;;;;;;;;5095111;28;20460;-89
2024/03/18 13:00:52;;;;;;;59.77;6.70;;;;;;;;;;5093912;28;20480;-84
2024/03/18 13:03:20;;;;;;;58.70;5.60;;;;;;;;;;5081748;28;20448;-84
2024/03/18 13:05:48;;;;;;;58.57;4.73;;;;;;;;;;5095743;28;20527;-85
2024/03/18 13:08:15;;;;;;;61.10;5.30;;;;;;;;;;5093838;28;20440;-84
2024/03/18 13:10:43;;;;;;;60.47;4.70;;;;;;;;;;5099039;28;20440;-83
2024/03/18 13:13:14;;;;;;;59.60;5.00;;;;;;;;;;5091318;28;20437;-85
2024/03/18 13:15:42;;;;;;;59.87;5.00;;;;;;;;;;5087455;28;20477;-84
2024/03/18 13:18:10;;;;;;;59.00;4.90;;;;;;;;;;5094072;28;20439;-83
2024/03/18 13:20:38;;;;;;;61.07;5.10;;;;;;;;;;5089055;28;20432;-84
2024/03/18 13:23:06;;;;;;;57.73;4.80;;;;;;;;;;5087187;28;20483;-82
2024/03/18 13:25:34;;;;;;;58.43;3.83;;;;;;;;;;5094831;28;21029;-84
2024/03/18 13:28:02;;;;;;;61.10;7.20;;;;;;;;;;5086010;28;20436;-85
2024/03/18 13:30:30;;;;;;;59.03;4.97;;;;;;;;;;5089008;28;20455;-84
2024/03/18 13:32:58;;;;;;;60.47;4.73;;;;;;;;;;5090930;28;20450;-83
2024/03/18 13:35:26;;;;;;;57.27;4.77;;;;;;;;;;5096852;28;20542;-82
2024/03/18 13:37:54;;;;;;;56.87;4.10;;;;;;;;;;5084086;28;20493;-83
2024/03/18 13:40:21;;;;;;;61.40;5.67;;;;;;;;;;5089537;28;20508;-84
2024/03/18 13:42:48;;;;;;;57.33;4.83;;;;;;;;;;5098905;28;20529;-82
2024/03/18 13:45:16;;;;;;;59.83;5.23;;;;;;;;;;5089659;28;20476;-83
2024/03/18 13:47:48;;;;;;;58.30;5.10;;;;;;;;;;5094161;28;20443;-83
2024/03/18 13:50:15;;;;;;;58.43;4.80;;;;;;;;;;5086533;28;20504;-84
2024/03/18 13:52:43;;;;;;;59.40;5.40;;;;;;;;;;5098432;28;20474;-83
2024/03/18 13:55:11;;;;;;;59.10;5.60;;;;;;;;;;5089169;28;20874;-84
2024/03/18 13:57:39;;;;;;;58.90;5.50;;;;;;;;;;5089876;28;20524;-84
2024/03/18 14:00:10;;;;;;;59.00;5.30;;;;;;;;;;5089182;28;20995;-85
2024/03/18 14:02:38;;;;;;;58.07;5.13;;;;;;;;;;5089827;28;20474;-84
2024/03/18 14:05:07;;;;;;;57.67;4.73;;;;;;;;;;5089818;28;20524;-84
2024/03/18 14:07:35;;;;;;;58.20;4.90;;;;;;;;;;5088395;28;20477;-85
2024/03/18 14:10:03;;;;;;;58.00;4.50;;;;;;;;;;5089424;28;20851;-84
2024/03/18 14:12:32;;;;;;;57.63;4.20;;;;;;;;;;5086967;28;20435;-84
2024/03/18 14:15:00;;;;;;;57.80;4.57;;;;;;;;;;5084824;28;20509;-85
2024/03/18 14:17:26;;;;;;;57.77;4.10;;;;;;;;;;5084341;28;20455;-84
2024/03/18 14:19:54;;;;;;;57.67;4.30;;;;;;;;;;5084798;28;20503;-85
2024/03/18 14:22:22;;;;;;;58.67;4.47;;;;;;;;;;5093298;28;20520;-84
2024/03/18 14:24:51;;;;;;;59.07;4.33;;;;;;;;;;5089731;28;20463;-84
2024/03/18 14:27:19;;;;;;;60.43;4.67;;;;;;;;;;5087924;28;20797;-83
2024/03/18 14:29:46;;;;;;;57.77;4.47;;;;;;;;;;5096236;28;20477;-85
2024/03/18 14:32:15;;;;;;;57.90;4.63;;;;;;;;;;5088357;28;20444;-86
2024/03/18 14:34:42;;;;;;;57.90;4.13;;;;;;;;;;5080312;28;20450;-83
2024/03/18 14:37:10;;;;;;;58.60;4.40;;;;;;;;;;5096262;28;20460;-84
2024/03/18 14:39:39;;;;;;;57.93;4.93;;;;;;;;;;5076593;28;20478;-84
2024/03/18 14:42:10;;;;;;;58.40;4.70;;;;;;;;;;5091587;28;20478;-85